РПИ Тюмень

РПИ Тюмень

РПИ Тюмень является структурным подразделением дивизиона VATRUS сети VATSIM.

РПИ осуществляет свою деятельность в границах Тюменской области, Ханты-Мансийского и Ямало-Ненецкого автономных округов. Воздушное пространство Тюменского региона, составляющее 1 млн 346 тысяч квадратных километров, простираясь от границы с Казахстаном до Карского моря, является своеобразной границей между Европейской и Азиатской частями России.

Протяженность участков воздушных трасс, проходящих над регионом, насчитывает 48 523 километра, из которых 35 989 километров – это международные воздушные трассы. В зоне ответственности РПИ Тюмень проходит весь транзитный поток воздушных судов по транссибирским и трансполярным маршрутам.

В границах района расположены 19 аэродромов, из них 4 – международных. Более половины этих аэропортов обеспечивают транспортную доступность к нефтяным месторождениям нефти и газа России, являясь стратегическими объектами энергетических компаний.

Средства связи ОВД / ATC Units:

RU-WSC_FSS - Урал-Радар (USSV, USTV FIRs) - 134.500

USTV_CTR - Тюмень-Контроль - РЦ Тюмень - 132.600

USTV_1_CTR - Тюмень-Контроль - Сектор 1 - 132.600

USTV_2_CTR - Тюмень-Контроль - Сектор 2 - 133.600

USTV_3_CTR - Тюмень-Контроль - Сектор 3 (Ханты Юг) - 129.400

USTV_4_CTR - Тюмень-Контроль - Сектор 4 (Сургут-Запад) - 133.300

USTV_5_CTR - Тюмень-Контроль - Сектор 5 (Ханты-Мансийск)- 135.600

USTV_6_CTR - Тюмень-Контроль - Сектор 6 (Сургут) - 132.200

USTV_7_CTR - Тюмень-Контроль - Сектор 7 (Тарко-Сале)  - 133.100

USTV_8_CTR - Тюмень-Контроль - Сектор 8 (Салехард) - 132.300

USTV_9_CTR - Тюмень-Контроль - Сектор 9 (М.Каменный) - 132.900

Ссылки на публичные ресурсы:

ВКонтакте, Discord

Руководство

Dmitriy Bannov

Начальник РегЦ ЕС ОрВД (Тюмень)
Инструкторы РПИ
Andrey Tonkachev * (Senior Student)
Anton Agaev (Instructor)
Dmitriy Bannov (Instructor)
Ivan Malygin * (Senior Student)
Kirill Rudavin (Instructor)
Maxim Gerasimov (Instructor)
Входит в состав
Центральная Россия

Диспетчеры РПИ

Диспетчер Рейтинг Допуски *
Andrew Zolotuhin Controller USTV_CTR
Anton Agaev Instructor USTV_CTR
Dmitriy Bannov Instructor USTV_CTR
Kirill Rudavin Instructor USTV_CTR
Maxim Gerasimov Instructor USTV_CTR
Aleksey Garmash Student 2 USRR_TWR!!!, USTR_TWR
Alexander Pervov Student 2 USRR_APP(USRR+USRO+USRK+USNN) , USTR_TWR
Andrey Shestakov Senior Student USTR_R_APP
Andrey Usyaev Student USTR_GND
Artem Glushkov Student USTR_GND
Bogdan Egorov Student USTR_GND
Daniil Omelchenko Student USTR_GND
Dima Platonov Student 2 USRR_R_APP*, USRR_TWR, USTR_GND
Egor Alexeev Student USTR_GND
Igor Shitov Senior Student USRR_APP(USRR+USRO+USRK+USNN) , USTR_R_APP
Kirill Ardatov Student 2 USDD_TWR, USRR_APP(USRR+USRK+USNN+USRO) , USTR_TWR
Konstantin Norkin Student 2 USTR_R_APP*, USTR_TWR
Nika Avdalov Student 2 USTR_TWR
Nikita Gonjarov Student 2 USHH_TWR, USTR_TWR
Vsevolod Skryabin Student 2 USMM_R_APP*, USRR_TWR, USTR_TWR

Аэропорты РПИ

ICAO Город Название Погода
USHQ Белоярский Белоярский
USHB Берёзово Берёзово
USRK Когалым Когалым
USMM Надым Надым
USNN Нижневартовск Нижневартовск USNN 100730Z 29002MPS CAVOK M29/M32 Q1026 R21/410265 NOSIG RMK QFE765
USMU Новый Уренгой Новый Уренгой
USRO Ноябрьск Ноябрьск
USHN Нягань Нягань
USDA Сабетта Сабетта USDA 100730Z 33004MPS 9999 BKN022 M15/M17 Q1030 R22/410252 NOSIG RMK QFE772/1029
USDD Салехард Салехард
USHS Советский Советский
USRR Сургут Сургут USRR 100730Z 28003MPS 9999 SCT029 M28/M31 Q1028 R25/35//50 NOSIG RMK QFE765
USTR Тюмень Тюмень USTR 100730Z 28001MPS 4000 -SHSN FEW011 OVC030CB M10/M12 Q1032 R30/490238 R21/490238 TEMPO 1000 SHSN VV004
USHU Урай Урай
USHH Ханты-Мансийск Ханты-Мансийск USHH 100730Z 27001MPS CAVOK M26/M29 Q1031 R24/810250 NOSIG
USDB Бованенково Бованенково
USHI Игрим Игрим
USDP Красноселькуп Красноселькуп
USDK Мыс Каменный Мыс Каменный
USDS Тарко-Сале Тарко-Сале
USTJ Тобольск Тобольск
USDO Толька Толька
USMQ Ямбург Ямбург